Time;durP1;ratioP1;P1;durP2;ratioP2;P2;SDS_P1;SDS_P2;PMS_P1;PMS_P2;Temp;Humidity;BMP_temperature;BMP_pressure;BME280_temperature;BME280_humidity;BME280_pressure;Samples;Min_cycle;Max_cycle;Signal;HPM_P1;HPM_P2
2022/10/16 00:01:05;;;;;;;7.45;3.90;;;;;;;;;;5041404;28;20105;-81
2022/10/16 00:03:31;;;;;;;6.90;3.50;;;;;;;;;;5034355;28;20482;-81
2022/10/16 00:06:00;;;;;;;6.75;3.55;;;;;;;;;;5034222;28;20494;-81
2022/10/16 00:08:26;;;;;;;9.90;3.20;;;;;;;;;;5033883;28;20022;-81
2022/10/16 00:10:52;;;;;;;5.07;3.35;;;;;;;;;;5033636;28;20029;-81
2022/10/16 00:13:20;;;;;;;5.50;3.20;;;;;;;;;;5033423;28;20055;-81
2022/10/16 00:15:46;;;;;;;6.03;3.38;;;;;;;;;;5033898;28;20018;-81
2022/10/16 00:18:14;;;;;;;9.15;3.22;;;;;;;;;;5034124;28;20034;-81
2022/10/16 00:20:41;;;;;;;6.88;3.28;;;;;;;;;;5049177;28;20128;-81
2022/10/16 00:23:08;;;;;;;7.45;3.58;;;;;;;;;;5033866;28;20029;-81
2022/10/16 00:25:34;;;;;;;4.53;3.40;;;;;;;;;;5034009;28;20026;-81
2022/10/16 00:28:01;;;;;;;6.60;3.50;;;;;;;;;;5033401;28;20033;-81
2022/10/16 00:30:28;;;;;;;5.40;3.20;;;;;;;;;;5034198;28;20021;-82
2022/10/16 00:32:55;;;;;;;5.88;3.35;;;;;;;;;;5033438;28;20086;-81
2022/10/16 00:35:21;;;;;;;5.90;3.47;;;;;;;;;;5033507;28;20027;-81
2022/10/16 00:37:47;;;;;;;5.97;3.10;;;;;;;;;;5033632;28;20033;-81
2022/10/16 00:40:14;;;;;;;4.53;2.97;;;;;;;;;;5033275;28;20035;-81
2022/10/16 00:42:40;;;;;;;5.15;3.53;;;;;;;;;;5033781;28;20027;-81
2022/10/16 00:45:07;;;;;;;7.10;3.70;;;;;;;;;;5033602;28;20390;-81
2022/10/16 00:47:35;;;;;;;8.63;3.72;;;;;;;;;;5033527;28;20035;-81
2022/10/16 00:50:09;;;;;;;8.52;3.95;;;;;;;;;;5033428;28;20504;-81
2022/10/16 00:52:36;;;;;;;5.78;2.95;;;;;;;;;;5033158;28;20033;-81
2022/10/16 00:55:05;;;;;;;7.93;3.20;;;;;;;;;;5033679;28;20025;-81
2022/10/16 00:57:31;;;;;;;4.70;3.08;;;;;;;;;;5032775;28;20501;-81
2022/10/16 00:59:58;;;;;;;6.00;3.30;;;;;;;;;;5032862;28;20036;-81
2022/10/16 01:02:25;;;;;;;8.40;3.38;;;;;;;;;;5032818;28;20032;-81
2022/10/16 01:04:52;;;;;;;5.80;3.22;;;;;;;;;;5033141;28;20059;-82
2022/10/16 01:07:37;;;;;;;4.53;2.97;;;;;;;;;;5032625;28;20029;-81
2022/10/16 01:10:03;;;;;;;8.40;3.45;;;;;;;;;;5033364;28;20032;-81
2022/10/16 01:12:41;;;;;;;3.92;2.80;;;;;;;;;;5033000;28;20029;-81
2022/10/16 01:15:17;;;;;;;4.68;2.97;;;;;;;;;;5034653;28;20094;-82
2022/10/16 01:17:53;;;;;;;4.45;2.83;;;;;;;;;;5042621;28;20103;-81
2022/10/16 01:20:20;;;;;;;7.57;3.20;;;;;;;;;;5033476;28;20102;-82
2022/10/16 01:22:49;;;;;;;5.00;2.75;;;;;;;;;;5032598;28;20021;-81
2022/10/16 01:25:36;;;;;;;5.60;3.00;;;;;;;;;;5032360;28;20021;-81
2022/10/16 01:28:03;;;;;;;3.30;2.80;;;;;;;;;;5011058;28;20061;-81
2022/10/16 01:30:31;;;;;;;6.72;3.20;;;;;;;;;;5011077;28;20406;-81
2022/10/16 01:33:03;;;;;;;4.40;2.70;;;;;;;;;;5010620;28;20045;-81
2022/10/16 01:35:37;;;;;;;11.02;3.38;;;;;;;;;;5010660;28;20028;-81
2022/10/16 01:38:04;;;;;;;5.72;3.13;;;;;;;;;;5009888;28;20052;-81
2022/10/16 01:40:32;;;;;;;4.10;3.00;;;;;;;;;;5010873;28;20037;-80
2022/10/16 01:43:05;;;;;;;5.88;2.92;;;;;;;;;;5001016;28;20027;-81
2022/10/16 01:45:32;;;;;;;5.95;2.75;;;;;;;;;;5010583;28;20466;-81
2022/10/16 01:48:00;;;;;;;7.55;2.80;;;;;;;;;;5010876;28;20030;-81
2022/10/16 01:50:27;;;;;;;7.05;2.88;;;;;;;;;;5010725;28;20033;-81
2022/10/16 01:52:54;;;;;;;4.20;2.83;;;;;;;;;;5010068;28;20044;-82
2022/10/16 01:55:27;;;;;;;9.25;2.92;;;;;;;;;;5010504;28;20025;-81
2022/10/16 01:57:54;;;;;;;4.60;2.72;;;;;;;;;;5009933;28;20399;-81
2022/10/16 02:00:21;;;;;;;9.02;2.90;;;;;;;;;;5010612;28;20033;-81
2022/10/16 02:02:50;;;;;;;6.97;2.90;;;;;;;;;;5010633;28;20442;-81
2022/10/16 02:05:21;;;;;;;5.68;3.17;;;;;;;;;;5022883;28;20425;-78
2022/10/16 02:07:48;;;;;;;5.85;2.95;;;;;;;;;;5032417;28;20030;-81
2022/10/16 02:10:14;;;;;;;3.42;2.60;;;;;;;;;;5032788;28;20048;-81
2022/10/16 02:12:43;;;;;;;9.68;2.90;;;;;;;;;;5031910;28;20033;-80
2022/10/16 02:15:09;;;;;;;12.77;3.30;;;;;;;;;;5047516;28;20058;-81
2022/10/16 02:17:36;;;;;;;8.55;3.05;;;;;;;;;;5032014;28;20022;-81
2022/10/16 02:20:02;;;;;;;4.82;2.92;;;;;;;;;;5032023;28;20021;-81
2022/10/16 02:22:49;;;;;;;7.43;2.80;;;;;;;;;;5032197;28;20044;-81
2022/10/16 02:25:15;;;;;;;5.22;2.83;;;;;;;;;;5032589;28;20021;-81
2022/10/16 02:27:42;;;;;;;3.72;3.13;;;;;;;;;;5032043;28;20022;-81
2022/10/16 02:30:12;;;;;;;6.43;2.88;;;;;;;;;;5032557;28;20026;-81
2022/10/16 02:32:40;;;;;;;10.98;3.20;;;;;;;;;;5033733;28;20036;-81
2022/10/16 02:35:08;;;;;;;5.47;3.10;;;;;;;;;;5041908;28;20104;-81
2022/10/16 02:37:34;;;;;;;5.43;2.97;;;;;;;;;;5032038;28;20020;-81
2022/10/16 02:40:02;;;;;;;5.20;2.85;;;;;;;;;;5031880;28;20029;-81
2022/10/16 02:42:36;;;;;;;5.40;3.28;;;;;;;;;;5031995;28;20033;-81
2022/10/16 02:45:03;;;;;;;10.38;3.20;;;;;;;;;;5031810;28;20521;-81
2022/10/16 02:47:29;;;;;;;4.00;3.40;;;;;;;;;;5032651;28;20028;-81
2022/10/16 02:49:56;;;;;;;5.45;3.70;;;;;;;;;;5047615;28;20025;-81
2022/10/16 02:52:22;;;;;;;7.25;3.20;;;;;;;;;;5035479;28;20025;-81
2022/10/16 02:54:48;;;;;;;5.85;3.35;;;;;;;;;;5036062;28;20031;-81
2022/10/16 02:57:15;;;;;;;9.20;3.35;;;;;;;;;;5035332;28;20021;-81
2022/10/16 02:59:41;;;;;;;6.43;2.80;;;;;;;;;;5035359;28;20030;-81
2022/10/16 03:02:08;;;;;;;5.35;3.40;;;;;;;;;;5035587;28;20035;-81
2022/10/16 03:04:34;;;;;;;4.10;3.30;;;;;;;;;;5035322;28;20035;-81
2022/10/16 03:07:00;;;;;;;5.85;2.90;;;;;;;;;;5035670;28;20075;-81
2022/10/16 03:09:27;;;;;;;6.10;3.30;;;;;;;;;;5050488;28;20033;-81
2022/10/16 03:11:53;;;;;;;3.90;2.90;;;;;;;;;;5034996;28;20029;-81
2022/10/16 03:14:19;;;;;;;3.72;2.70;;;;;;;;;;5034476;28;20045;-81
2022/10/16 03:16:46;;;;;;;5.30;2.60;;;;;;;;;;5035448;28;20399;-81
2022/10/16 03:19:12;;;;;;;4.93;3.20;;;;;;;;;;5050705;28;20030;-81
2022/10/16 03:21:38;;;;;;;5.60;3.10;;;;;;;;;;5035057;28;20544;-81
2022/10/16 03:24:05;;;;;;;5.85;3.08;;;;;;;;;;5035324;28;20254;-81
2022/10/16 03:26:31;;;;;;;5.97;2.88;;;;;;;;;;5035235;28;20020;-81
2022/10/16 03:28:58;;;;;;;5.28;3.50;;;;;;;;;;5035200;28;20417;-81
2022/10/16 03:31:24;;;;;;;5.22;3.05;;;;;;;;;;5035027;28;20493;-81
2022/10/16 03:33:50;;;;;;;6.80;3.28;;;;;;;;;;5034898;28;20041;-81
2022/10/16 03:36:16;;;;;;;4.82;3.55;;;;;;;;;;5034408;28;20429;-81
2022/10/16 03:38:43;;;;;;;6.03;3.40;;;;;;;;;;5034998;28;20021;-82
2022/10/16 03:41:09;;;;;;;4.63;3.30;;;;;;;;;;5034754;28;20379;-81
2022/10/16 03:43:35;;;;;;;9.18;3.40;;;;;;;;;;5033999;28;20092;-81
2022/10/16 03:46:02;;;;;;;4.88;3.50;;;;;;;;;;5034607;28;20039;-81
2022/10/16 03:48:28;;;;;;;5.97;4.00;;;;;;;;;;5034475;28;20024;-81
2022/10/16 03:50:54;;;;;;;7.78;3.50;;;;;;;;;;5039746;28;20018;-82
2022/10/16 03:53:21;;;;;;;5.32;3.40;;;;;;;;;;5040869;28;20039;-81
2022/10/16 03:55:47;;;;;;;5.93;3.85;;;;;;;;;;5034207;28;20035;-82
2022/10/16 03:58:15;;;;;;;5.93;3.80;;;;;;;;;;5033950;28;20033;-81
2022/10/16 04:00:45;;;;;;;5.10;3.60;;;;;;;;;;5034593;28;20025;-81
2022/10/16 04:03:11;;;;;;;5.53;3.33;;;;;;;;;;5033000;28;20029;-81
2022/10/16 04:05:38;;;;;;;5.43;3.60;;;;;;;;;;5034049;28;20024;-81
2022/10/16 04:08:05;;;;;;;7.15;3.78;;;;;;;;;;5034139;28;20029;-81
2022/10/16 04:10:31;;;;;;;4.32;3.03;;;;;;;;;;5034631;28;20394;-81
2022/10/16 04:12:57;;;;;;;8.10;3.92;;;;;;;;;;5032861;28;20045;-81
2022/10/16 04:15:24;;;;;;;6.35;3.60;;;;;;;;;;5033833;28;20052;-81
2022/10/16 04:17:51;;;;;;;5.93;3.70;;;;;;;;;;5033644;28;20029;-81
2022/10/16 04:20:18;;;;;;;4.70;3.42;;;;;;;;;;5033957;28;20029;-82
2022/10/16 04:22:44;;;;;;;5.22;3.90;;;;;;;;;;5034033;28;20032;-81
2022/10/16 04:25:11;;;;;;;6.80;3.70;;;;;;;;;;5034549;28;20031;-81
2022/10/16 04:27:38;;;;;;;9.85;3.80;;;;;;;;;;5033785;28;20091;-81
2022/10/16 04:30:05;;;;;;;9.15;3.83;;;;;;;;;;5033745;28;20036;-81
2022/10/16 04:32:31;;;;;;;9.40;3.70;;;;;;;;;;5033152;28;20035;-81
2022/10/16 04:34:58;;;;;;;5.80;3.70;;;;;;;;;;5033498;28;20033;-81
2022/10/16 04:37:27;;;;;;;5.85;4.47;;;;;;;;;;5048985;28;20386;-81
2022/10/16 04:39:54;;;;;;;5.95;3.75;;;;;;;;;;5033621;28;20483;-82
2022/10/16 04:42:21;;;;;;;8.32;4.15;;;;;;;;;;5033322;28;20391;-82
2022/10/16 04:44:47;;;;;;;7.95;4.13;;;;;;;;;;5032924;28;20029;-81
2022/10/16 04:47:13;;;;;;;4.05;3.67;;;;;;;;;;5034152;28;20033;-81
2022/10/16 04:49:41;;;;;;;4.90;3.90;;;;;;;;;;5033669;28;20033;-81
2022/10/16 04:52:09;;;;;;;6.25;3.70;;;;;;;;;;5033624;28;20026;-81
2022/10/16 04:54:35;;;;;;;4.50;3.60;;;;;;;;;;5049035;28;20040;-81
2022/10/16 04:57:02;;;;;;;7.93;3.75;;;;;;;;;;5034219;28;20036;-81
2022/10/16 04:59:28;;;;;;;6.00;3.45;;;;;;;;;;5032631;28;20501;-81
2022/10/16 05:01:54;;;;;;;6.35;3.78;;;;;;;;;;5032880;28;20022;-81
2022/10/16 05:04:20;;;;;;;4.68;3.53;;;;;;;;;;5033248;28;20485;-81
2022/10/16 05:06:48;;;;;;;6.35;3.70;;;;;;;;;;5033197;28;20032;-81
2022/10/16 05:09:14;;;;;;;8.00;4.13;;;;;;;;;;5044140;28;20109;-81
2022/10/16 05:11:40;;;;;;;10.63;3.92;;;;;;;;;;5035153;28;20041;-81
2022/10/16 05:14:07;;;;;;;4.22;3.63;;;;;;;;;;5032505;28;20103;-81
2022/10/16 05:16:33;;;;;;;6.72;3.92;;;;;;;;;;5032726;28;20051;-81
2022/10/16 05:19:00;;;;;;;8.60;4.18;;;;;;;;;;5033331;28;20029;-82
2022/10/16 05:21:26;;;;;;;5.20;3.95;;;;;;;;;;5032967;28;20018;-81
2022/10/16 05:23:54;;;;;;;7.47;3.90;;;;;;;;;;5033135;28;20044;-81
2022/10/16 05:26:20;;;;;;;8.90;4.10;;;;;;;;;;5033134;28;20013;-81
2022/10/16 05:28:48;;;;;;;7.53;4.07;;;;;;;;;;5032105;28;20021;-81
2022/10/16 05:31:15;;;;;;;7.88;4.15;;;;;;;;;;5033071;28;20371;-80
2022/10/16 05:33:41;;;;;;;9.65;4.78;;;;;;;;;;5047947;28;20044;-81
2022/10/16 05:36:09;;;;;;;7.38;4.95;;;;;;;;;;5032310;28;20486;-81
2022/10/16 05:38:36;;;;;;;8.05;4.47;;;;;;;;;;5031649;28;20075;-81
2022/10/16 05:41:03;;;;;;;8.68;4.10;;;;;;;;;;5032479;28;20025;-82
2022/10/16 05:43:29;;;;;;;6.50;4.47;;;;;;;;;;5031834;28;20018;-81
2022/10/16 05:46:00;;;;;;;7.78;4.43;;;;;;;;;;5032331;28;20022;-81
2022/10/16 05:48:27;;;;;;;10.02;4.90;;;;;;;;;;5032582;28;20025;-81
2022/10/16 05:50:57;;;;;;;10.68;4.65;;;;;;;;;;5032089;28;20108;-81
2022/10/16 05:53:25;;;;;;;11.77;4.57;;;;;;;;;;5032462;28;20043;-81
2022/10/16 05:55:57;;;;;;;5.10;3.85;;;;;;;;;;5039590;28;20470;-82
2022/10/16 05:58:24;;;;;;;6.72;4.50;;;;;;;;;;5051670;28;20029;-80
2022/10/16 06:00:57;;;;;;;5.63;4.30;;;;;;;;;;5051820;28;20024;-81
2022/10/16 06:03:24;;;;;;;7.47;4.32;;;;;;;;;;5052302;28;20044;-81
2022/10/16 06:05:51;;;;;;;4.68;4.10;;;;;;;;;;5052419;28;20021;-81
2022/10/16 06:08:18;;;;;;;6.57;4.07;;;;;;;;;;5052054;28;20035;-81
2022/10/16 06:10:45;;;;;;;6.03;4.13;;;;;;;;;;5052382;28;20031;-81
2022/10/16 06:13:11;;;;;;;8.68;4.43;;;;;;;;;;5050198;28;20059;-81
2022/10/16 06:15:38;;;;;;;6.20;4.18;;;;;;;;;;5051645;28;20025;-81
2022/10/16 06:18:05;;;;;;;6.22;4.30;;;;;;;;;;5051757;28;20025;-81
2022/10/16 06:20:32;;;;;;;7.53;4.32;;;;;;;;;;5051499;28;20033;-81
2022/10/16 06:22:58;;;;;;;7.63;4.35;;;;;;;;;;5051556;28;20027;-81
2022/10/16 06:25:24;;;;;;;8.63;4.75;;;;;;;;;;5057294;28;20029;-80
2022/10/16 06:27:51;;;;;;;7.75;4.47;;;;;;;;;;5059392;28;20021;-81
2022/10/16 06:30:17;;;;;;;6.45;4.50;;;;;;;;;;5055105;28;20497;-81
2022/10/16 06:32:43;;;;;;;7.30;4.40;;;;;;;;;;5055117;28;20413;-81
2022/10/16 06:35:09;;;;;;;11.98;4.50;;;;;;;;;;5054384;28;20033;-81
2022/10/16 06:37:36;;;;;;;5.13;4.53;;;;;;;;;;5055337;28;20021;-81
2022/10/16 06:40:04;;;;;;;5.68;4.22;;;;;;;;;;5055082;28;20514;-81
2022/10/16 06:42:30;;;;;;;9.10;4.30;;;;;;;;;;5049096;28;20536;-82
2022/10/16 06:44:57;;;;;;;9.93;4.57;;;;;;;;;;5034959;28;20033;-81
2022/10/16 06:47:23;;;;;;;8.82;4.70;;;;;;;;;;5035303;28;20028;-81
2022/10/16 06:49:49;;;;;;;5.65;4.20;;;;;;;;;;5035336;28;20029;-81
2022/10/16 06:52:16;;;;;;;10.15;4.60;;;;;;;;;;5035249;28;20039;-81
2022/10/16 06:54:42;;;;;;;7.97;4.70;;;;;;;;;;5050541;28;20593;-81
2022/10/16 06:57:08;;;;;;;6.88;4.30;;;;;;;;;;5035010;28;20022;-81
2022/10/16 06:59:35;;;;;;;7.78;4.18;;;;;;;;;;5034789;28;20390;-80
2022/10/16 07:02:01;;;;;;;6.65;4.15;;;;;;;;;;5035139;28;20025;-81
2022/10/16 07:04:27;;;;;;;9.23;4.78;;;;;;;;;;5050767;28;20021;-81
2022/10/16 07:06:54;;;;;;;5.18;4.45;;;;;;;;;;5034660;28;20018;-81
2022/10/16 07:09:20;;;;;;;9.20;4.65;;;;;;;;;;5034570;28;20059;-82
2022/10/16 07:11:46;;;;;;;9.52;4.50;;;;;;;;;;5034755;28;20031;-81
2022/10/16 07:14:17;;;;;;;7.50;5.05;;;;;;;;;;5034336;28;20057;-81
2022/10/16 07:16:43;;;;;;;;;;;;;;;;;;5034920;28;20501;-81
2022/10/16 07:19:11;;;;;;;9.10;5.97;;;;;;;;;;5034983;28;19908;-81
2022/10/16 07:21:38;;;;;;;7.53;5.55;;;;;;;;;;5034829;28;20028;-81
2022/10/16 07:24:11;;;;;;;11.82;6.10;;;;;;;;;;5034410;28;20452;-81
2022/10/16 07:26:39;;;;;;;8.18;4.80;;;;;;;;;;5034118;28;20475;-82
2022/10/16 07:29:11;;;;;;;13.00;4.93;;;;;;;;;;5034704;28;20043;-82
2022/10/16 07:31:38;;;;;;;13.43;5.13;;;;;;;;;;5034371;28;20028;-81
2022/10/16 07:34:05;;;;;;;7.28;4.55;;;;;;;;;;5034425;28;20055;-81
2022/10/16 07:36:31;;;;;;;6.80;4.35;;;;;;;;;;5033231;28;20021;-81
2022/10/16 07:38:57;;;;;;;9.75;4.50;;;;;;;;;;5034439;28;20030;-81
2022/10/16 07:41:24;;;;;;;8.63;3.67;;;;;;;;;;5034839;28;20025;-80
2022/10/16 07:43:51;;;;;;;6.65;3.30;;;;;;;;;;5037696;28;20030;-81
2022/10/16 07:46:18;;;;;;;10.95;3.55;;;;;;;;;;5035709;28;20055;-82
2022/10/16 07:48:46;;;;;;;8.52;3.53;;;;;;;;;;5034202;28;20025;-81
2022/10/16 07:51:14;;;;;;;10.38;3.25;;;;;;;;;;5034458;28;20026;-81
2022/10/16 07:53:40;;;;;;;7.18;3.08;;;;;;;;;;5033606;28;20033;-81
2022/10/16 07:56:07;;;;;;;5.18;2.90;;;;;;;;;;5034171;28;20502;-82
2022/10/16 07:58:36;;;;;;;8.90;2.67;;;;;;;;;;5033994;28;20033;-81
2022/10/16 08:01:07;;;;;;;4.60;2.60;;;;;;;;;;5033945;28;20028;-81
2022/10/16 08:03:34;;;;;;;6.38;3.00;;;;;;;;;;5034169;28;20025;-82
2022/10/16 08:06:00;;;;;;;8.48;2.58;;;;;;;;;;5033782;28;20028;-81
2022/10/16 08:08:27;;;;;;;5.85;2.65;;;;;;;;;;5033485;28;20032;-80
2022/10/16 08:10:54;;;;;;;4.10;2.30;;;;;;;;;;5033663;28;20036;-81
2022/10/16 08:13:20;;;;;;;6.10;2.67;;;;;;;;;;5033311;28;20498;-82
2022/10/16 08:15:47;;;;;;;6.45;2.47;;;;;;;;;;5048998;28;20039;-82
2022/10/16 08:18:14;;;;;;;3.92;2.50;;;;;;;;;;5033509;28;20387;-81
2022/10/16 08:20:41;;;;;;;7.85;2.90;;;;;;;;;;5033840;28;20017;-81
2022/10/16 08:23:07;;;;;;;5.28;2.28;;;;;;;;;;5033172;28;20026;-82
2022/10/16 08:25:37;;;;;;;6.13;2.50;;;;;;;;;;5033589;28;20028;-81
2022/10/16 08:28:05;;;;;;;5.93;2.42;;;;;;;;;;5033355;28;20094;-82
2022/10/16 08:30:32;;;;;;;7.47;2.10;;;;;;;;;;5033491;28;20025;-81
2022/10/16 08:32:58;;;;;;;4.05;2.30;;;;;;;;;;5048456;28;20045;-81
2022/10/16 08:35:24;;;;;;;3.60;2.20;;;;;;;;;;5033414;28;20033;-82
2022/10/16 08:37:50;;;;;;;4.80;2.10;;;;;;;;;;5033070;28;20021;-81
2022/10/16 08:40:19;;;;;;;4.35;2.20;;;;;;;;;;5033061;28;20025;-81
2022/10/16 08:42:49;;;;;;;4.70;2.22;;;;;;;;;;5032957;28;20025;-81
2022/10/16 08:45:21;;;;;;;4.20;2.22;;;;;;;;;;5032841;28;20025;-81
2022/10/16 08:48:06;;;;;;;5.22;2.00;;;;;;;;;;5032642;28;20037;-80
2022/10/16 08:50:36;;;;;;;6.50;2.47;;;;;;;;;;5032714;28;20043;-82
2022/10/16 08:53:04;;;;;;;7.32;2.30;;;;;;;;;;5032374;28;20029;-82
2022/10/16 08:55:45;;;;;;;5.97;2.10;;;;;;;;;;5033009;28;20032;-80
2022/10/16 08:58:22;;;;;;;4.20;2.40;;;;;;;;;;5033327;28;20029;-82
2022/10/16 09:00:51;;;;;;;5.88;2.10;;;;;;;;;;5034492;28;20519;-81
2022/10/16 09:03:32;;;;;;;5.03;2.05;;;;;;;;;;5032636;28;20025;-82
2022/10/16 09:06:18;;;;;;;10.70;2.47;;;;;;;;;;5032203;28;20055;-81
2022/10/16 09:08:56;;;;;;;7.15;2.30;;;;;;;;;;5032444;28;20039;-82
2022/10/16 09:11:25;;;;;;;6.53;2.03;;;;;;;;;;5032661;28;20040;-81
2022/10/16 09:14:15;;;;;;;13.85;2.15;;;;;;;;;;5032318;28;20037;-81
2022/10/16 09:16:45;;;;;;;5.10;2.67;;;;;;;;;;5029374;28;20498;-82
2022/10/16 09:19:17;;;;;;;5.40;2.38;;;;;;;;;;5032521;28;20404;-82
2022/10/16 09:21:45;;;;;;;6.65;2.30;;;;;;;;;;5031919;28;20026;-81
2022/10/16 09:24:11;;;;;;;5.18;2.25;;;;;;;;;;5032307;28;20026;-82
2022/10/16 09:26:37;;;;;;;5.43;2.22;;;;;;;;;;5047637;28;20478;-82
2022/10/16 09:29:04;;;;;;;5.28;2.30;;;;;;;;;;5032191;28;20025;-82
2022/10/16 09:31:30;;;;;;;7.15;2.47;;;;;;;;;;5032488;28;20159;-82
2022/10/16 09:34:04;;;;;;;6.35;2.45;;;;;;;;;;5032190;28;20026;-82
2022/10/16 09:36:32;;;;;;;6.65;2.30;;;;;;;;;;5032083;28;20029;-82
2022/10/16 09:39:06;;;;;;;7.70;2.72;;;;;;;;;;5032042;28;20034;-82
2022/10/16 09:41:34;;;;;;;6.22;2.22;;;;;;;;;;5031886;28;20026;-82
2022/10/16 09:44:02;;;;;;;3.05;1.83;;;;;;;;;;5031840;28;20509;-83
2022/10/16 09:46:30;;;;;;;8.43;2.28;;;;;;;;;;5032290;28;20025;-83
2022/10/16 09:48:58;;;;;;;5.32;2.28;;;;;;;;;;5031983;28;20016;-81
2022/10/16 09:51:35;;;;;;;5.05;1.98;;;;;;;;;;5031750;28;20029;-81
2022/10/16 09:54:12;;;;;;;7.05;2.20;;;;;;;;;;5031754;28;20052;-82
2022/10/16 09:56:39;;;;;;;5.20;2.20;;;;;;;;;;5031796;28;20024;-79
2022/10/16 09:59:18;;;;;;;5.05;2.42;;;;;;;;;;5031932;28;20380;-81
2022/10/16 10:01:48;;;;;;;4.07;1.98;;;;;;;;;;5035941;28;20474;-79
2022/10/16 10:04:14;;;;;;;6.30;2.00;;;;;;;;;;5035600;28;20033;-80
2022/10/16 10:06:48;;;;;;;5.55;2.08;;;;;;;;;;5035840;28;20028;-80
2022/10/16 10:09:14;;;;;;;3.85;1.98;;;;;;;;;;5035888;28;20034;-81
2022/10/16 10:11:45;;;;;;;4.93;2.22;;;;;;;;;;5035867;28;20475;-80
2022/10/16 10:14:21;;;;;;;7.88;2.20;;;;;;;;;;5035662;28;20045;-80
2022/10/16 10:16:48;;;;;;;5.30;2.35;;;;;;;;;;5036004;28;20487;-81
2022/10/16 10:19:22;;;;;;;5.10;1.70;;;;;;;;;;5035786;28;20505;-81
2022/10/16 10:21:49;;;;;;;4.40;1.75;;;;;;;;;;5035761;28;20386;-81
2022/10/16 10:24:16;;;;;;;12.27;1.88;;;;;;;;;;5035500;28;20025;-81
2022/10/16 10:26:46;;;;;;;5.75;1.90;;;;;;;;;;5035296;28;20021;-81
2022/10/16 10:29:16;;;;;;;3.90;1.70;;;;;;;;;;5051163;28;20045;-81
2022/10/16 10:31:42;;;;;;;7.00;1.87;;;;;;;;;;5035694;28;20021;-81
2022/10/16 10:34:20;;;;;;;3.72;1.63;;;;;;;;;;5034996;28;20049;-82
2022/10/16 10:36:49;;;;;;;8.30;2.58;;;;;;;;;;5035357;28;20032;-82
2022/10/16 10:39:42;;;;;;;6.77;1.60;;;;;;;;;;5035411;28;20414;-81
2022/10/16 10:42:27;;;;;;;4.88;1.70;;;;;;;;;;5034045;28;20545;-81
2022/10/16 10:45:14;;;;;;;4.63;1.75;;;;;;;;;;5035113;28;20026;-82
2022/10/16 10:47:41;;;;;;;4.88;1.80;;;;;;;;;;5034845;28;20382;-80
2022/10/16 10:50:26;;;;;;;5.95;1.98;;;;;;;;;;5035119;28;20026;-80
2022/10/16 10:53:18;;;;;;;6.90;2.17;;;;;;;;;;5034930;28;20025;-81
2022/10/16 10:55:49;;;;;;;4.25;1.83;;;;;;;;;;5035011;28;20030;-81
2022/10/16 10:58:16;;;;;;;3.08;1.73;;;;;;;;;;5034776;28;20036;-81
2022/10/16 11:00:42;;;;;;;10.00;2.15;;;;;;;;;;5035261;28;20024;-81
2022/10/16 11:03:27;;;;;;;7.22;2.20;;;;;;;;;;5034671;28;20032;-81
2022/10/16 11:05:58;;;;;;;7.20;2.00;;;;;;;;;;5034771;28;20087;-80
2022/10/16 11:08:24;;;;;;;7.65;2.30;;;;;;;;;;5034931;28;20029;-79
2022/10/16 11:11:23;;;;;;;7.03;1.90;;;;;;;;;;5034650;28;20652;-81
2022/10/16 11:13:56;;;;;;;6.13;1.90;;;;;;;;;;5012686;28;20057;-81
2022/10/16 11:16:42;;;;;;;6.22;2.15;;;;;;;;;;4995994;28;20068;-79
2022/10/16 11:19:26;;;;;;;5.78;2.03;;;;;;;;;;5012701;28;20034;-81
2022/10/16 11:22:05;;;;;;;6.80;2.20;;;;;;;;;;5012735;28;20034;-81
2022/10/16 11:24:43;;;;;;;8.35;1.92;;;;;;;;;;5013027;28;20076;-81
2022/10/16 11:27:12;;;;;;;9.55;2.20;;;;;;;;;;5012597;28;20034;-81
2022/10/16 11:29:45;;;;;;;5.22;1.92;;;;;;;;;;5012538;28;20048;-81
2022/10/16 11:32:20;;;;;;;6.00;2.03;;;;;;;;;;5012261;28;20026;-81
2022/10/16 11:34:52;;;;;;;6.32;1.88;;;;;;;;;;5014303;28;20034;-81
2022/10/16 11:37:21;;;;;;;5.43;1.95;;;;;;;;;;5012853;28;20030;-80
2022/10/16 11:39:47;;;;;;;10.05;2.20;;;;;;;;;;5012519;28;20034;-81
2022/10/16 11:42:30;;;;;;;5.50;2.08;;;;;;;;;;5008627;28;20044;-81
2022/10/16 11:45:09;;;;;;;5.80;2.20;;;;;;;;;;5007651;28;20034;-80
2022/10/16 11:47:36;;;;;;;4.70;2.10;;;;;;;;;;5011813;28;20406;-81
2022/10/16 11:50:19;;;;;;;8.18;2.47;;;;;;;;;;5029260;28;20044;-81
2022/10/16 11:52:51;;;;;;;6.68;2.35;;;;;;;;;;5033833;28;20368;-81
2022/10/16 11:55:20;;;;;;;7.40;1.75;;;;;;;;;;5033912;28;20029;-80
2022/10/16 11:57:49;;;;;;;8.30;2.25;;;;;;;;;;5033847;28;20033;-80
2022/10/16 12:00:24;;;;;;;6.97;2.13;;;;;;;;;;5033591;28;20032;-81
2022/10/16 12:03:12;;;;;;;7.38;2.40;;;;;;;;;;5033829;28;20026;-81
2022/10/16 12:05:57;;;;;;;4.15;2.20;;;;;;;;;;5033659;28;20039;-81
2022/10/16 12:08:24;;;;;;;6.90;2.40;;;;;;;;;;5033862;28;20018;-81
2022/10/16 12:10:50;;;;;;;7.20;2.10;;;;;;;;;;5033989;28;20029;-80
2022/10/16 12:13:29;;;;;;;6.40;2.38;;;;;;;;;;5033362;28;20046;-81
2022/10/16 12:16:20;;;;;;;7.38;2.08;;;;;;;;;;5048725;28;20039;-81
2022/10/16 12:18:47;;;;;;;5.47;2.20;;;;;;;;;;5033408;28;20088;-81
2022/10/16 12:21:15;;;;;;;5.63;2.00;;;;;;;;;;5033466;28;20026;-81
2022/10/16 12:23:51;;;;;;;6.65;2.17;;;;;;;;;;5032848;28;20043;-80
2022/10/16 12:26:32;;;;;;;7.40;2.40;;;;;;;;;;5048744;28;20067;-81
2022/10/16 12:29:11;;;;;;;5.93;2.58;;;;;;;;;;5048331;28;20124;-81
2022/10/16 12:31:40;;;;;;;7.40;2.10;;;;;;;;;;5033125;28;20026;-81
2022/10/16 12:34:06;;;;;;;8.88;2.17;;;;;;;;;;5033089;28;20033;-81
2022/10/16 12:36:34;;;;;;;6.20;2.10;;;;;;;;;;5033396;28;20032;-81
2022/10/16 12:39:01;;;;;;;7.18;2.00;;;;;;;;;;5033182;28;20087;-81
2022/10/16 12:41:29;;;;;;;6.05;2.08;;;;;;;;;;5033346;28;20036;-81
2022/10/16 12:43:56;;;;;;;8.63;2.28;;;;;;;;;;5032474;28;20037;-81
2022/10/16 12:46:40;;;;;;;9.35;2.33;;;;;;;;;;5032906;28;20021;-81
2022/10/16 12:49:12;;;;;;;8.35;2.33;;;;;;;;;;5033148;28;20060;-81
2022/10/16 12:51:39;;;;;;;8.50;2.10;;;;;;;;;;5032997;28;20020;-80
2022/10/16 12:54:06;;;;;;;5.22;2.05;;;;;;;;;;5035691;28;20034;-79
2022/10/16 12:56:37;;;;;;;10.02;2.30;;;;;;;;;;5032885;28;20513;-81
2022/10/16 12:59:09;;;;;;;7.95;2.65;;;;;;;;;;5032444;28;20056;-81
2022/10/16 13:01:54;;;;;;;5.38;1.98;;;;;;;;;;5048107;28;20025;-81
2022/10/16 13:04:31;;;;;;;6.72;2.08;;;;;;;;;;5032644;28;20025;-81
2022/10/16 13:07:09;;;;;;;4.57;1.98;;;;;;;;;;5032452;28;20067;-81
2022/10/16 13:09:56;;;;;;;6.03;1.92;;;;;;;;;;5032409;28;20083;-81
2022/10/16 13:12:25;;;;;;;8.57;1.95;;;;;;;;;;5032194;28;20028;-81
2022/10/16 13:14:52;;;;;;;6.68;2.08;;;;;;;;;;5032189;28;20502;-81
2022/10/16 13:17:27;;;;;;;5.82;1.92;;;;;;;;;;5032379;28;20029;-81
2022/10/16 13:20:00;;;;;;;6.63;1.80;;;;;;;;;;5032351;28;20036;-81
2022/10/16 13:22:29;;;;;;;6.43;2.00;;;;;;;;;;5032582;28;20025;-81
2022/10/16 13:25:01;;;;;;;7.93;1.92;;;;;;;;;;5032130;28;20037;-80
2022/10/16 13:27:49;;;;;;;6.75;2.60;;;;;;;;;;5031833;28;20048;-81
2022/10/16 13:30:20;;;;;;;5.95;1.70;;;;;;;;;;5032229;28;20018;-81
2022/10/16 13:32:46;;;;;;;;;;;;;;;;;;5032670;28;20467;-80
2022/10/16 13:35:39;;;;;;;7.57;1.90;;;;;;;;;;5031469;28;19913;-79
2022/10/16 13:38:13;;;;;;;7.10;1.70;;;;;;;;;;5030941;28;20033;-81
2022/10/16 13:40:53;;;;;;;10.10;2.63;;;;;;;;;;5032346;28;20033;-79
2022/10/16 13:43:20;;;;;;;11.55;2.28;;;;;;;;;;5031769;28;20029;-81
2022/10/16 13:45:53;;;;;;;6.10;2.10;;;;;;;;;;5032131;28;20029;-81
2022/10/16 13:48:20;;;;;;;6.00;2.15;;;;;;;;;;5032038;28;20026;-81
2022/10/16 13:50:46;;;;;;;5.70;1.70;;;;;;;;;;5032329;28;20038;-79
2022/10/16 13:53:13;;;;;;;5.28;1.90;;;;;;;;;;5032401;28;20036;-81
2022/10/16 13:55:40;;;;;;;6.55;2.20;;;;;;;;;;5031977;28;20031;-81
2022/10/16 13:58:12;;;;;;;6.38;2.08;;;;;;;;;;5031808;28;20021;-81
2022/10/16 14:00:38;;;;;;;7.70;2.22;;;;;;;;;;5032106;28;20025;-80
2022/10/16 14:03:06;;;;;;;7.90;1.73;;;;;;;;;;5032347;28;20026;-80
2022/10/16 14:05:32;;;;;;;5.65;1.73;;;;;;;;;;5032134;28;20025;-81
2022/10/16 14:07:59;;;;;;;3.90;1.63;;;;;;;;;;5047556;28;20025;-80
2022/10/16 14:10:30;;;;;;;9.32;2.15;;;;;;;;;;5033204;28;20025;-81
2022/10/16 14:12:58;;;;;;;6.93;1.92;;;;;;;;;;5048905;28;20528;-80
2022/10/16 14:15:25;;;;;;;3.50;1.60;;;;;;;;;;5032069;28;20033;-80
2022/10/16 14:17:52;;;;;;;6.15;1.90;;;;;;;;;;5031881;28;20026;-80
2022/10/16 14:20:19;;;;;;;7.28;2.33;;;;;;;;;;5031619;28;20036;-80
2022/10/16 14:22:46;;;;;;;3.15;1.70;;;;;;;;;;5032044;28;20025;-81
2022/10/16 14:25:22;;;;;;;6.30;1.77;;;;;;;;;;5031446;28;20521;-80
2022/10/16 14:28:04;;;;;;;8.30;2.00;;;;;;;;;;5032138;28;20026;-80
2022/10/16 14:30:32;;;;;;;8.88;2.00;;;;;;;;;;5031679;28;20456;-80
2022/10/16 14:33:06;;;;;;;4.43;1.85;;;;;;;;;;5031728;28;20500;-79
2022/10/16 14:35:34;;;;;;;3.88;1.58;;;;;;;;;;5047318;28;20026;-81
2022/10/16 14:38:01;;;;;;;5.68;2.03;;;;;;;;;;5031634;28;20398;-81
2022/10/16 14:40:29;;;;;;;7.57;1.90;;;;;;;;;;5031328;28;20111;-81
2022/10/16 14:42:55;;;;;;;5.90;1.90;;;;;;;;;;5031589;28;20021;-80
2022/10/16 14:45:26;;;;;;;7.30;2.10;;;;;;;;;;5031327;28;20094;-79
2022/10/16 14:48:13;;;;;;;6.82;1.45;;;;;;;;;;5035466;28;20028;-80
2022/10/16 14:50:39;;;;;;;7.88;2.25;;;;;;;;;;5035049;28;20405;-80
2022/10/16 14:53:12;;;;;;;5.07;2.00;;;;;;;;;;5050903;28;20033;-80
2022/10/16 14:55:38;;;;;;;5.43;2.00;;;;;;;;;;5034854;28;20021;-80
2022/10/16 14:58:05;;;;;;;5.25;2.05;;;;;;;;;;5034911;28;20025;-79